createdAt,value
2017-07-10T00:00:53.200Z,71.06
2017-07-10T00:02:03.461Z,70.58
2017-07-10T00:03:13.747Z,70.58
2017-07-10T00:04:23.695Z,71.22
2017-07-10T00:05:33.334Z,70.93
2017-07-10T00:06:43.579Z,71.03
2017-07-10T00:07:53.849Z,70.84
2017-07-10T00:09:03.489Z,71.31
2017-07-10T00:10:13.795Z,71.12
2017-07-10T00:11:23.749Z,71.03
2017-07-10T00:12:33.960Z,71.31
2017-07-10T00:13:43.584Z,71.12
2017-07-10T00:14:53.863Z,70.84
2017-07-10T00:16:04.142Z,71.22
2017-07-10T00:17:14.091Z,71.51
2017-07-10T00:18:24.284Z,70.64
2017-07-10T00:19:34.567Z,71.22
2017-07-10T00:20:44.925Z,71.03
2017-07-10T00:21:54.573Z,71.12
2017-07-10T00:23:04.826Z,71.61
2017-07-10T00:24:15.347Z,71.31
2017-07-10T00:25:25.617Z,71.41
2017-07-10T00:26:35.908Z,71.22
2017-07-10T00:27:46.180Z,71.8
2017-07-10T00:28:56.451Z,71.98
2017-07-10T00:30:06.642Z,72.18
2017-07-10T00:31:16.600Z,71.98
2017-07-10T00:32:26.908Z,71.98
2017-07-10T00:33:37.191Z,71.7
2017-07-10T00:34:47.448Z,71.61
2017-07-10T00:35:57.710Z,71.8
2017-07-10T00:37:07.982Z,71.51
2017-07-10T00:38:17.936Z,72.18
2017-07-10T00:39:28.206Z,71.89
2017-07-10T00:40:37.527Z,71.8
2017-07-10T00:41:48.056Z,71.61
2017-07-10T00:42:58.003Z,71.66
2017-07-10T00:44:07.962Z,71.86
2017-07-10T00:45:18.229Z,72.43
2017-07-10T00:46:28.531Z,72.37
2017-07-10T00:47:39.040Z,72.91
2017-07-10T00:48:48.690Z,72.53
2017-07-10T00:49:58.961Z,72.81
2017-07-10T00:51:09.226Z,72.53
2017-07-10T00:52:19.185Z,72.53
2017-07-10T00:53:29.392Z,72.72
2017-07-10T00:54:39.666Z,72.43
2017-07-10T00:55:49.620Z,73.2
2017-07-10T00:56:59.590Z,73.58
2017-07-10T00:58:09.233Z,72.81
2017-07-10T00:59:19.754Z,73.2
2017-07-10T01:00:29.713Z,73.68
2017-07-10T01:01:39.335Z,73.77
2017-07-10T01:02:49.610Z,73.1
2017-07-10T01:03:59.588Z,73.49
2017-07-10T01:05:09.784Z,73.3
2017-07-10T01:06:19.740Z,73.97
2017-07-10T01:07:30.004Z,73.49
2017-07-10T01:08:40.256Z,74.16
2017-07-10T01:09:50.523Z,74.35
2017-07-10T01:11:01.112Z,74.26
2017-07-10T01:12:11.064Z,74.73
2017-07-10T01:13:21.337Z,74.73
2017-07-10T01:14:31.601Z,74.41
2017-07-10T01:15:41.885Z,74.73
2017-07-10T01:16:51.775Z,74.64
2017-07-10T01:18:01.742Z,74.69
2017-07-10T01:19:12.004Z,74.6
2017-07-10T01:20:22.277Z,74.51
2017-07-10T01:21:32.558Z,74.89
2017-07-10T01:22:43.077Z,75.18
2017-07-10T01:23:53.328Z,75.27
2017-07-10T01:25:03.281Z,74.93
2017-07-10T01:26:13.221Z,75.75
2017-07-10T01:27:23.472Z,75.27
2017-07-10T01:28:33.677Z,75.37
2017-07-10T01:29:43.951Z,75.75
2017-07-10T01:30:53.907Z,75.85
2017-07-10T01:32:03.858Z,76.23
2017-07-10T01:33:13.810Z,75.65
2017-07-10T01:34:24.332Z,75.18
2017-07-10T01:35:34.606Z,75.65
2017-07-10T01:36:44.563Z,76.14
2017-07-10T01:37:54.202Z,75.46
2017-07-10T01:39:04.175Z,76.14
2017-07-10T01:40:14.692Z,76.62
2017-07-10T01:41:24.965Z,76.62
2017-07-10T01:42:35.272Z,76.62
2017-07-10T01:43:45.557Z,76.42
2017-07-10T01:44:55.820Z,76.81
2017-07-10T01:46:06.038Z,76.48
2017-07-10T01:47:16.325Z,76.62
2017-07-10T01:48:26.593Z,76.71
2017-07-10T01:49:36.849Z,77.06
2017-07-10T01:50:46.782Z,77.06
2017-07-10T01:51:56.980Z,77.15
2017-07-10T01:53:07.258Z,77.25
2017-07-10T01:54:17.203Z,77.63
2017-07-10T01:55:27.468Z,77.82
2017-07-10T01:56:37.427Z,78.2
2017-07-10T01:57:47.313Z,78.02
2017-07-10T01:58:57.269Z,78.02
2017-07-10T02:00:07.213Z,77.63
2017-07-10T02:01:17.231Z,77.63
2017-07-10T02:02:27.511Z,78.3
2017-07-10T02:03:37.720Z,78.59
2017-07-10T02:04:48.002Z,78.69
2017-07-10T02:05:57.957Z,78.59
2017-07-10T02:07:07.599Z,78.49
2017-07-10T02:08:17.867Z,78.11
2017-07-10T02:09:27.431Z,78.59
2017-07-10T02:10:37.699Z,78.69
2017-07-10T02:11:47.352Z,78.49
2017-07-10T02:12:57.314Z,78.07
2017-07-10T02:14:07.589Z,78.11
2017-07-10T02:15:17.469Z,78.64
2017-07-10T02:16:27.739Z,78.93
2017-07-10T02:17:38.010Z,78.64
2017-07-10T02:18:47.960Z,78.93
2017-07-10T02:19:58.233Z,79.03
2017-07-10T02:21:08.793Z,78.45
2017-07-10T02:22:19.074Z,78.36
2017-07-10T02:23:29.342Z,78.45
2017-07-10T02:24:39.607Z,78.27
2017-07-10T02:25:49.559Z,78.45
2017-07-10T02:26:59.771Z,78.36
2017-07-10T02:28:09.713Z,78.84
2017-07-10T02:29:19.343Z,78.64
2017-07-10T02:30:29.297Z,78.74
2017-07-10T02:31:39.578Z,78.74
2017-07-10T02:32:49.780Z,78.74
2017-07-10T02:34:00.053Z,79.03
2017-07-10T02:35:10.302Z,78.93
2017-07-10T02:36:19.301Z,78.84
2017-07-10T02:37:29.556Z,78.93
2017-07-10T02:38:40.122Z,79.03
2017-07-10T02:39:49.757Z,78.36
2017-07-10T02:40:59.085Z,78.74
2017-07-10T02:42:08.707Z,78.84
2017-07-10T02:43:19.155Z,79.03
2017-07-10T02:44:29.419Z,78.93
2017-07-10T02:45:39.392Z,78.84
2017-07-10T02:46:49.335Z,79.03
2017-07-10T02:47:59.283Z,79.03
2017-07-10T02:49:09.556Z,78.93
2017-07-10T02:50:19.433Z,78.93
2017-07-10T02:51:29.621Z,79.03
2017-07-10T02:52:39.576Z,78.93
2017-07-10T02:53:49.523Z,78.93
2017-07-10T02:54:59.801Z,78.93
2017-07-10T02:56:10.324Z,79.13
2017-07-10T02:57:19.645Z,79.32
2017-07-10T02:58:29.904Z,79.51
2017-07-10T02:59:39.541Z,79.13
2017-07-10T03:00:49.804Z,79.03
2017-07-10T03:02:00.003Z,79.13
2017-07-10T03:03:10.266Z,79.13
2017-07-10T03:04:20.213Z,79.41
2017-07-10T03:05:30.167Z,79.6
2017-07-10T03:06:40.139Z,79.6
2017-07-10T03:07:50.402Z,79.51
2017-07-10T03:09:00.041Z,79.51
2017-07-10T03:10:09.656Z,79.32
2017-07-10T03:11:19.616Z,79.51
2017-07-10T03:12:29.873Z,79.6
2017-07-10T03:13:40.393Z,79.51
2017-07-10T03:14:50.350Z,80.18
2017-07-10T03:16:00.618Z,79.6
2017-07-10T03:17:10.262Z,79.7
2017-07-10T03:18:20.532Z,79.51
2017-07-10T03:19:30.103Z,78.93
2017-07-10T03:20:40.064Z,79.03
2017-07-10T03:21:50.019Z,79.32
2017-07-10T03:23:00.285Z,79.51
2017-07-10T03:24:10.552Z,79.13
2017-07-10T03:25:20.754Z,79.51
2017-07-10T03:26:31.034Z,78.84
2017-07-10T03:27:41.295Z,79.13
2017-07-10T03:28:51.574Z,79.13
2017-07-10T03:30:01.850Z,79.22
2017-07-10T03:31:12.362Z,78.93
2017-07-10T03:32:22.621Z,78.64
2017-07-10T03:33:32.559Z,78.93
2017-07-10T03:34:42.509Z,78.84
2017-07-10T03:35:52.461Z,78.4
2017-07-10T03:37:02.348Z,78.2
2017-07-10T03:38:11.974Z,78.49
2017-07-10T03:39:21.927Z,78.3
2017-07-10T03:40:31.955Z,78.2
2017-07-10T03:41:41.907Z,78.4
2017-07-10T03:42:52.433Z,78.4
2017-07-10T03:44:02.689Z,78.49
2017-07-10T03:45:12.312Z,78.2
2017-07-10T03:46:21.629Z,78.4
2017-07-10T03:47:31.574Z,78.11
2017-07-10T03:48:41.452Z,77.63
2017-07-10T03:49:51.725Z,77.82
2017-07-10T03:51:01.669Z,77.73
2017-07-10T03:52:11.624Z,78.02
2017-07-10T03:53:21.898Z,78.2
2017-07-10T03:54:31.834Z,77.92
2017-07-10T03:55:41.163Z,78.11
2017-07-10T03:56:51.444Z,77.53
2017-07-10T03:58:01.727Z,77.06
2017-07-10T03:59:11.369Z,76.48
2017-07-10T04:00:21.634Z,77.06
2017-07-10T04:01:31.901Z,76.77
2017-07-10T04:02:41.849Z,77.15
2017-07-10T04:03:51.817Z,76.96
2017-07-10T04:05:01.760Z,77.15
2017-07-10T04:06:11.657Z,77.09
2017-07-10T04:07:21.919Z,76.57
2017-07-10T04:08:32.167Z,77.09
2017-07-10T04:09:42.113Z,76.86
2017-07-10T04:10:52.067Z,77.19
2017-07-10T04:12:01.962Z,76.81
2017-07-10T04:13:11.612Z,76.81
2017-07-10T04:14:21.863Z,76.62
2017-07-10T04:15:32.133Z,76.71
2017-07-10T04:16:41.776Z,76.52
2017-07-10T04:17:52.353Z,76.81
2017-07-10T04:19:02.632Z,76.32
2017-07-10T04:20:12.905Z,76.32
2017-07-10T04:21:23.164Z,76.62
2017-07-10T04:22:33.430Z,76.62
2017-07-10T04:23:44.001Z,76.62
2017-07-10T04:24:53.334Z,76.32
2017-07-10T04:26:03.515Z,76.23
2017-07-10T04:27:13.776Z,76.04
2017-07-10T04:28:23.738Z,76.52
2017-07-10T04:29:33.944Z,76.23
2017-07-10T04:30:44.218Z,75.6
2017-07-10T04:31:54.515Z,75.85
2017-07-10T04:33:04.793Z,75.56
2017-07-10T04:34:15.070Z,75.89
2017-07-10T04:35:25.597Z,75.79
2017-07-10T04:36:35.237Z,75.6
2017-07-10T04:37:45.489Z,75.7
2017-07-10T04:38:55.439Z,75.31
2017-07-10T04:40:05.697Z,75.6
2017-07-10T04:41:16.249Z,75.31
2017-07-10T04:42:26.221Z,74.93
2017-07-10T04:43:36.484Z,75.12
2017-07-10T04:44:46.767Z,75.12
2017-07-10T04:45:57.031Z,75.02
2017-07-10T04:47:07.294Z,75.02
2017-07-10T04:48:16.955Z,74.35
2017-07-10T04:49:27.236Z,74.19
2017-07-10T04:50:37.517Z,74.29
2017-07-10T04:51:47.473Z,74.19
2017-07-10T04:52:57.354Z,74.68
2017-07-10T04:54:07.623Z,74.01
2017-07-10T04:55:17.592Z,74.68
2017-07-10T04:56:27.550Z,74.68
2017-07-10T04:57:37.178Z,74.1
2017-07-10T04:58:47.685Z,74.19
2017-07-10T04:59:57.650Z,74.39
2017-07-10T05:01:07.614Z,74.01
2017-07-10T05:02:17.571Z,74.1
2017-07-10T05:03:27.518Z,74.01
2017-07-10T05:04:37.717Z,74.01
2017-07-10T05:05:47.358Z,74.19
2017-07-10T05:06:57.333Z,74.77
2017-07-10T05:08:07.287Z,74.39
2017-07-10T05:09:16.925Z,74.19
2017-07-10T05:10:27.134Z,73.72
2017-07-10T05:11:37.418Z,73.81
2017-07-10T05:12:46.739Z,74.13
2017-07-10T05:13:56.690Z,73.75
2017-07-10T05:15:06.642Z,73.66
2017-07-10T05:16:16.581Z,73.27
2017-07-10T05:17:26.861Z,73.27
2017-07-10T05:18:36.809Z,73.27
2017-07-10T05:19:46.784Z,72.89
2017-07-10T05:20:56.728Z,72.54
2017-07-10T05:22:06.933Z,72.99
2017-07-10T05:23:16.888Z,72.83
2017-07-10T05:24:27.151Z,72.92
2017-07-10T05:25:37.100Z,72.64
2017-07-10T05:26:47.075Z,72.64
2017-07-10T05:27:56.957Z,72.54
2017-07-10T05:29:07.239Z,72.06
2017-07-10T05:30:17.195Z,72
2017-07-10T05:31:27.480Z,72.16
2017-07-10T05:32:37.794Z,71.33
2017-07-10T05:33:48.022Z,72.09
2017-07-10T05:34:58.275Z,71.42
2017-07-10T05:36:07.927Z,71.91
2017-07-10T05:37:17.892Z,71.52
2017-07-10T05:38:27.887Z,72
2017-07-10T05:39:37.761Z,72.48
2017-07-10T05:40:48.031Z,72
2017-07-10T05:41:58.290Z,72.09
2017-07-10T05:43:08.231Z,71.33
2017-07-10T05:44:18.168Z,71.91
2017-07-10T05:45:28.709Z,71.33
2017-07-10T05:46:38.981Z,71.42
2017-07-10T05:47:49.250Z,71.42
2017-07-10T05:48:59.543Z,71.71
2017-07-10T05:50:09.815Z,70.88
2017-07-10T05:51:19.758Z,71.26
2017-07-10T05:52:30.037Z,70.5
2017-07-10T05:53:40.314Z,70.59
2017-07-10T05:54:50.587Z,70.68
2017-07-10T05:56:00.866Z,70.5
2017-07-10T05:57:11.409Z,70.24
2017-07-10T05:58:21.379Z,70.24
2017-07-10T05:59:31.647Z,69.67
2017-07-10T06:00:41.939Z,69.18
2017-07-10T06:01:51.923Z,69.28
2017-07-10T06:03:02.120Z,69.18
2017-07-10T06:04:12.379Z,69.02
2017-07-10T06:05:22.342Z,68.74
2017-07-10T06:06:31.973Z,68.44
2017-07-10T06:07:41.945Z,68.44
2017-07-10T06:08:52.507Z,68.74
2017-07-10T06:10:02.795Z,67.87
2017-07-10T06:11:12.441Z,67.97
2017-07-10T06:12:22.722Z,67.52
2017-07-10T06:13:32.696Z,68
2017-07-10T06:14:43.242Z,68
2017-07-10T06:15:53.540Z,68.1
2017-07-10T06:17:03.813Z,68.1
2017-07-10T06:18:14.081Z,68
2017-07-10T06:19:24.057Z,68.38
2017-07-10T06:20:34.667Z,67.9
2017-07-10T06:21:44.953Z,67.81
2017-07-10T06:22:55.232Z,67.23
2017-07-10T06:24:05.514Z,67.33
2017-07-10T06:25:15.800Z,67.23
2017-07-10T06:26:26.341Z,67.81
2017-07-10T06:27:36.687Z,67.16
2017-07-10T06:28:46.992Z,67.16
2017-07-10T06:29:57.277Z,68.04
2017-07-10T06:31:07.554Z,66.78
2017-07-10T06:32:18.151Z,67.07
2017-07-10T06:33:28.422Z,67.16
2017-07-10T06:34:37.760Z,66.97
2017-07-10T06:35:47.731Z,67.07
2017-07-10T06:36:58.003Z,66.52
2017-07-10T06:38:08.210Z,66.88
2017-07-10T06:39:18.179Z,67.55
2017-07-10T06:40:28.165Z,66.97
2017-07-10T06:41:38.439Z,67.46
2017-07-10T06:42:48.423Z,67.07
2017-07-10T06:43:58.956Z,67.16
2017-07-10T06:45:09.237Z,67.65
2017-07-10T06:46:19.502Z,66.97
2017-07-10T06:47:29.781Z,66.59
2017-07-10T06:48:40.057Z,66.82
2017-07-10T06:49:50.284Z,66.72
2017-07-10T06:51:00.552Z,66.04
2017-07-10T06:52:10.511Z,66.14
2017-07-10T06:53:20.496Z,66.62
2017-07-10T06:54:30.785Z,65.85
2017-07-10T06:55:41.054Z,66.72
2017-07-10T06:56:51.351Z,67
2017-07-10T06:58:01.640Z,67
2017-07-10T06:59:11.922Z,67.2
2017-07-10T07:00:22.189Z,67.1
2017-07-10T07:01:32.722Z,67.1
2017-07-10T07:02:43.009Z,67.3
2017-07-10T07:03:53.351Z,66.43
2017-07-10T07:05:03.624Z,65.95
2017-07-10T07:06:13.916Z,66.17
2017-07-10T07:07:24.437Z,65.88
2017-07-10T07:08:34.415Z,66.08
2017-07-10T07:09:44.390Z,66.17
2017-07-10T07:10:54.656Z,65.98
2017-07-10T07:12:04.933Z,65.78
2017-07-10T07:13:15.471Z,65.88
2017-07-10T07:14:25.425Z,65.72
2017-07-10T07:15:35.715Z,65.72
2017-07-10T07:16:45.988Z,65.82
2017-07-10T07:17:56.485Z,65.82
2017-07-10T07:19:06.708Z,65.82
2017-07-10T07:20:16.999Z,65.82
2017-07-10T07:21:27.288Z,65.24
2017-07-10T07:22:37.231Z,65.34
2017-07-10T07:23:47.165Z,64.66
2017-07-10T07:24:57.371Z,64.56
2017-07-10T07:26:07.650Z,65.43
2017-07-10T07:27:17.939Z,65.43
2017-07-10T07:28:28.223Z,65.72
2017-07-10T07:29:38.498Z,64.86
2017-07-10T07:30:49.022Z,64.86
2017-07-10T07:31:59.323Z,65.53
2017-07-10T07:33:09.274Z,65.43
2017-07-10T07:34:19.229Z,65.14
2017-07-10T07:35:29.497Z,64.95
2017-07-10T07:36:40.029Z,64.59
2017-07-10T07:37:49.677Z,65.17
2017-07-10T07:38:59.629Z,65.27
2017-07-10T07:40:09.608Z,64.69
2017-07-10T07:41:19.891Z,65.47
2017-07-10T07:42:30.428Z,64.69
2017-07-10T07:43:40.723Z,65.17
2017-07-10T07:44:50.997Z,64.21
2017-07-10T07:46:01.301Z,63.92
2017-07-10T07:47:11.584Z,63.63
2017-07-10T07:48:21.801Z,64.59
2017-07-10T07:49:32.088Z,64.79
2017-07-10T07:50:42.365Z,65.08
2017-07-10T07:51:52.633Z,64.69
2017-07-10T07:53:02.280Z,65.17
2017-07-10T07:54:12.805Z,65.08
2017-07-10T07:55:23.075Z,65.05
2017-07-10T07:56:33.358Z,65.43
2017-07-10T07:57:43.007Z,65.72
2017-07-10T07:58:52.963Z,66.69
2017-07-10T08:00:03.512Z,66.3
2017-07-10T08:01:13.816Z,66.11
2017-07-10T08:02:24.096Z,66.11
2017-07-10T08:03:34.369Z,66.69
2017-07-10T08:04:44.681Z,65.82
2017-07-10T08:05:55.188Z,66.01
2017-07-10T08:07:05.492Z,66.2
2017-07-10T08:08:15.772Z,66.3
2017-07-10T08:09:26.058Z,66.78
2017-07-10T08:10:36.354Z,66.88
2017-07-10T08:11:46.873Z,67.27
2017-07-10T08:12:57.175Z,67.71
2017-07-10T08:14:07.467Z,68.1
2017-07-10T08:15:17.756Z,68.55
2017-07-10T08:16:27.720Z,70.28
2017-07-10T08:17:37.999Z,71.22
2017-07-10T08:18:48.510Z,71.41
2017-07-10T08:19:58.790Z,71.76
2017-07-10T08:21:09.065Z,72.63
2017-07-10T08:22:19.345Z,73.68
2017-07-10T08:23:29.600Z,74.41
2017-07-10T08:24:39.887Z,75.73
2017-07-10T08:25:49.847Z,76.4
2017-07-10T08:27:00.122Z,77.75
2017-07-10T08:28:10.089Z,78.03
2017-07-10T08:29:20.310Z,78.58
2017-07-10T08:30:30.284Z,78.67
2017-07-10T08:31:40.255Z,79.4
2017-07-10T08:32:50.741Z,80.5
2017-07-10T08:34:01.027Z,80.94
2017-07-10T08:35:11.254Z,81.32
2017-07-10T08:36:21.221Z,81.71
2017-07-10T08:37:31.482Z,81.9
2017-07-10T08:38:41.776Z,82.82
2017-07-10T08:39:51.738Z,82.92
2017-07-10T08:41:02.253Z,82.92
2017-07-10T08:42:12.202Z,83.2
2017-07-10T08:43:22.476Z,83.3
2017-07-10T08:44:32.443Z,84.07
2017-07-10T08:45:42.404Z,84.31
2017-07-10T08:46:52.947Z,84.22
2017-07-10T08:48:02.906Z,85.75
2017-07-10T08:49:13.179Z,85.66
2017-07-10T08:50:23.455Z,85.47
2017-07-10T08:51:33.419Z,85.75
2017-07-10T08:52:43.991Z,85.71
2017-07-10T08:53:54.277Z,88.79
2017-07-10T08:55:04.556Z,89.75
2017-07-10T08:56:14.851Z,88.21
2017-07-10T08:57:24.819Z,89.46
2017-07-10T08:58:35.044Z,90.66
2017-07-10T08:59:45.301Z,92.19
2017-07-10T09:00:55.933Z,94.49
2017-07-10T09:02:05.993Z,94.59
2017-07-10T09:03:16.144Z,94.98
2017-07-10T09:04:26.516Z,95.84
2017-07-10T09:05:36.801Z,96.56
2017-07-10T09:06:47.070Z,97.33
2017-07-10T09:07:57.352Z,97.33
2017-07-10T09:09:07.849Z,98.38
2017-07-10T09:10:18.394Z,98.77
2017-07-10T09:11:28.690Z,98.57
2017-07-10T09:12:38.680Z,98.67
2017-07-10T09:13:48.960Z,99.05
2017-07-10T09:14:59.241Z,99.05
2017-07-10T09:16:09.844Z,99.39
2017-07-10T09:17:20.118Z,99.44
2017-07-10T09:18:30.396Z,99.91
2017-07-10T09:19:40.665Z,99.63
2017-07-10T09:20:50.930Z,99.63
2017-07-10T09:22:01.162Z,99.44
2017-07-10T09:23:11.482Z,99.99
2017-07-10T09:24:21.803Z,0
2017-07-10T09:25:32.086Z,0
2017-07-10T09:26:42.049Z,0
2017-07-10T09:27:52.562Z,0
2017-07-10T09:29:02.503Z,0
2017-07-10T09:30:12.789Z,0
2017-07-10T09:31:22.761Z,0
2017-07-10T09:32:33.040Z,0
2017-07-10T09:33:43.632Z,0
2017-07-10T09:34:53.934Z,0
2017-07-10T09:36:03.893Z,0
2017-07-10T09:37:13.857Z,0
2017-07-10T09:38:24.107Z,0
2017-07-10T09:39:34.004Z,0
2017-07-10T09:40:44.319Z,0
2017-07-10T09:41:54.591Z,0
2017-07-10T09:43:04.901Z,0
2017-07-10T09:44:15.192Z,0
2017-07-10T09:45:25.736Z,0
2017-07-10T09:46:36.020Z,0
2017-07-10T09:47:45.996Z,0
2017-07-10T09:48:56.288Z,0
2017-07-10T09:50:06.551Z,0
2017-07-10T09:51:16.763Z,0
2017-07-10T09:52:27.062Z,0
2017-07-10T09:53:37.341Z,0
2017-07-10T09:54:47.633Z,0
2017-07-10T09:55:57.916Z,0
2017-07-10T09:57:08.446Z,0
2017-07-10T09:58:18.738Z,0
2017-07-10T09:59:29.061Z,0
2017-07-10T10:00:39.338Z,0
2017-07-10T10:01:49.299Z,0
2017-07-10T10:02:59.846Z,0
2017-07-10T10:04:09.798Z,0
2017-07-10T10:05:19.764Z,0
2017-07-10T10:06:29.707Z,0
2017-07-10T10:07:40.071Z,0
2017-07-10T10:08:50.610Z,0
2017-07-10T10:10:00.891Z,0
2017-07-10T10:11:11.153Z,0
2017-07-10T10:12:21.119Z,0
2017-07-10T10:13:31.399Z,0
2017-07-10T10:14:41.950Z,0
2017-07-10T10:15:52.233Z,0
2017-07-10T10:17:01.565Z,0
2017-07-10T10:18:11.533Z,0
2017-07-10T10:19:21.192Z,0
2017-07-10T10:20:31.696Z,0
2017-07-10T10:21:41.963Z,0
2017-07-10T10:22:51.941Z,0
2017-07-10T10:24:02.225Z,0
2017-07-10T10:25:11.865Z,0
2017-07-10T10:26:22.430Z,0
2017-07-10T10:27:32.715Z,0
2017-07-10T10:28:42.692Z,0
2017-07-10T10:29:52.977Z,0
2017-07-10T10:31:03.255Z,0
2017-07-10T10:32:13.796Z,0
2017-07-10T10:33:24.058Z,0
2017-07-10T10:34:34.343Z,0
2017-07-10T10:35:44.631Z,0
2017-07-10T10:36:54.911Z,0
2017-07-10T10:38:05.133Z,0
2017-07-10T10:39:15.124Z,0
2017-07-10T10:40:25.409Z,0
2017-07-10T10:41:35.682Z,0
2017-07-10T10:42:45.962Z,0
2017-07-10T10:43:56.474Z,0
2017-07-10T10:45:06.760Z,0
2017-07-10T10:46:17.118Z,0
2017-07-10T10:47:27.392Z,0
2017-07-10T10:48:37.677Z,0
2017-07-10T10:49:48.199Z,0
2017-07-10T10:50:58.483Z,0
2017-07-10T10:52:08.778Z,0
2017-07-10T10:53:19.051Z,0
2017-07-10T10:54:29.326Z,0
2017-07-10T10:55:39.859Z,0
2017-07-10T10:56:50.151Z,0
2017-07-10T10:58:00.431Z,0
2017-07-10T10:59:10.402Z,0
2017-07-10T11:00:20.695Z,0
2017-07-10T11:01:31.242Z,0
2017-07-10T11:02:41.514Z,0
2017-07-10T11:03:51.792Z,0
2017-07-10T11:05:02.366Z,0
2017-07-10T11:06:12.646Z,0
2017-07-10T11:07:23.211Z,0
2017-07-10T11:08:33.500Z,0
2017-07-10T11:09:43.800Z,0
2017-07-10T11:10:53.758Z,0
2017-07-10T11:12:04.052Z,0
2017-07-10T11:13:14.605Z,0
2017-07-10T11:14:24.568Z,0
2017-07-10T11:15:34.528Z,0
2017-07-10T11:16:44.801Z,0
2017-07-10T11:17:55.111Z,0
2017-07-10T11:19:05.339Z,0
2017-07-10T11:20:15.637Z,0
2017-07-10T11:21:25.612Z,0
2017-07-10T11:22:35.962Z,0
2017-07-10T11:23:46.261Z,0
2017-07-10T11:24:56.775Z,0
2017-07-10T11:26:06.727Z,0
2017-07-10T11:27:16.421Z,0
2017-07-10T11:28:26.386Z,0
2017-07-10T11:29:36.689Z,0
2017-07-10T11:30:47.219Z,0
2017-07-10T11:31:56.881Z,0
2017-07-10T11:33:07.188Z,0
2017-07-10T11:34:17.163Z,0.48
2017-07-10T11:35:27.459Z,2.11
2017-07-10T11:36:38.068Z,3.17
2017-07-10T11:37:48.341Z,3.94
2017-07-10T11:38:58.610Z,4.22
2017-07-10T11:40:08.616Z,4.8
2017-07-10T11:41:18.887Z,5.19
2017-07-10T11:42:29.423Z,5.96
2017-07-10T11:43:39.402Z,5.96
2017-07-10T11:44:49.361Z,7.1
2017-07-10T11:45:59.650Z,7.49
2017-07-10T11:47:09.944Z,7.78
2017-07-10T11:48:20.156Z,8.07
2017-07-10T11:49:30.448Z,9.03
2017-07-10T11:50:40.751Z,11.05
2017-07-10T11:51:51.037Z,13.36
2017-07-10T11:53:01.338Z,15.38
2017-07-10T11:54:11.624Z,15.95
2017-07-10T11:55:21.911Z,16.52
2017-07-10T11:56:32.182Z,17.29
2017-07-10T11:57:42.463Z,18.84
2017-07-10T11:58:52.764Z,19.23
2017-07-10T12:00:03.313Z,20.28
2017-07-10T12:01:13.607Z,21.05
2017-07-10T12:02:23.889Z,21.34
2017-07-10T12:03:34.171Z,22.11
2017-07-10T12:04:44.457Z,25.17
2017-07-10T12:05:55.002Z,26.81
2017-07-10T12:07:05.297Z,26.05
2017-07-10T12:08:15.274Z,27
2017-07-10T12:09:25.559Z,27
2017-07-10T12:10:35.867Z,27.95
2017-07-10T12:11:46.391Z,31.8
2017-07-10T12:12:56.363Z,33.26
2017-07-10T12:14:06.337Z,38.72
2017-07-10T12:15:16.614Z,48.13
2017-07-10T12:16:26.559Z,59.19
2017-07-10T12:17:37.097Z,67.74
2017-07-10T12:18:47.388Z,76.86
2017-07-10T12:19:57.035Z,86.18
2017-07-10T12:21:07.051Z,94.59
2017-07-10T12:22:17.346Z,99.99
2017-07-10T12:23:27.869Z,99.99
2017-07-10T12:24:38.132Z,99.99
2017-07-10T12:25:48.087Z,99.99
2017-07-10T12:26:58.374Z,99.99
2017-07-10T12:28:08.658Z,99.99
2017-07-10T12:29:19.237Z,99.99
2017-07-10T12:30:29.237Z,99.99
2017-07-10T12:31:39.200Z,99.99
2017-07-10T12:32:49.160Z,99.99
2017-07-10T12:33:59.125Z,99.99
2017-07-10T12:35:09.396Z,99.99
2017-07-10T12:36:19.667Z,99.99
2017-07-10T12:37:29.961Z,99.99
2017-07-10T12:38:39.922Z,99.99
2017-07-10T12:39:49.880Z,99.99
2017-07-10T12:41:00.108Z,99.99
2017-07-10T12:42:10.391Z,99.99
2017-07-10T12:43:20.674Z,99.99
2017-07-10T12:44:30.661Z,99.99
2017-07-10T12:45:40.633Z,99.99
2017-07-10T12:46:51.149Z,99.99
2017-07-10T12:48:01.424Z,99.99
2017-07-10T12:49:11.441Z,99.99
2017-07-10T12:50:21.726Z,99.99
2017-07-10T12:51:31.710Z,99.99
2017-07-10T12:52:41.962Z,99.99
2017-07-10T12:53:52.240Z,99.99
2017-07-10T12:55:02.531Z,99.99
2017-07-10T12:56:12.499Z,99.99
2017-07-10T12:57:22.788Z,99.99
2017-07-10T12:58:33.310Z,99.99
2017-07-10T12:59:43.577Z,99.99
2017-07-10T13:00:53.531Z,99.99
2017-07-10T13:02:03.820Z,99.99
2017-07-10T13:03:14.160Z,99.99
2017-07-10T13:04:24.686Z,99.99
2017-07-10T13:05:34.649Z,99.99
2017-07-10T13:06:44.961Z,99.99
2017-07-10T13:07:55.254Z,99.99
2017-07-10T13:09:05.233Z,99.99
2017-07-10T13:10:15.798Z,99.99
2017-07-10T13:11:26.080Z,99.99
2017-07-10T13:12:36.350Z,99.99
2017-07-10T13:13:46.662Z,99.99
2017-07-10T13:14:56.644Z,99.99
2017-07-10T13:16:06.894Z,99.99
2017-07-10T13:17:17.179Z,99.99
2017-07-10T13:18:27.477Z,99.99
2017-07-10T13:19:37.761Z,99.99
2017-07-10T13:20:48.042Z,99.99
2017-07-10T13:21:58.243Z,99.99
2017-07-10T13:23:08.511Z,99.99
2017-07-10T13:24:18.799Z,99.99
2017-07-10T13:25:29.070Z,99.99
2017-07-10T13:26:39.349Z,99.99
2017-07-10T13:27:49.564Z,99.99
2017-07-10T13:28:59.197Z,99.99
2017-07-10T13:30:09.196Z,99.99
2017-07-10T13:31:19.472Z,99.99
2017-07-10T13:32:29.437Z,99.99
2017-07-10T13:33:39.698Z,99.99
2017-07-10T13:34:49.968Z,99.99
2017-07-10T13:36:00.246Z,99.99
2017-07-10T13:37:10.513Z,99.99
2017-07-10T13:38:20.781Z,99.99
2017-07-10T13:39:31.378Z,99.99
2017-07-10T13:40:41.659Z,99.99
2017-07-10T13:41:51.940Z,99.99
2017-07-10T13:43:02.229Z,99.99
2017-07-10T13:44:12.499Z,99.99
2017-07-10T13:45:23.133Z,99.99
2017-07-10T13:46:33.414Z,99.99
2017-07-10T13:47:43.682Z,99.99
2017-07-10T13:48:53.636Z,99.99
2017-07-10T13:50:03.648Z,99.99
2017-07-10T13:51:13.854Z,99.99
2017-07-10T13:52:23.818Z,99.99
2017-07-10T13:53:34.085Z,99.99
2017-07-10T13:54:44.359Z,99.99
2017-07-10T13:55:54.350Z,99.99
2017-07-10T13:57:04.889Z,99.99
2017-07-10T13:58:15.159Z,99.99
2017-07-10T13:59:25.430Z,99.99
2017-07-10T14:00:35.063Z,99.99
2017-07-10T14:01:45.323Z,99.99
2017-07-10T14:02:55.864Z,99.99
2017-07-10T14:04:06.159Z,99.99
2017-07-10T14:05:16.427Z,99.99
2017-07-10T14:06:26.733Z,99.99
2017-07-10T14:07:37.005Z,99.99
2017-07-10T14:08:47.548Z,99.99
2017-07-10T14:09:57.204Z,99.99
2017-07-10T14:11:06.866Z,99.99
2017-07-10T14:12:16.816Z,99.99
2017-07-10T14:13:27.100Z,99.99
2017-07-10T14:14:37.306Z,99.99
2017-07-10T14:15:46.942Z,99.99
2017-07-10T14:16:56.917Z,99.99
2017-07-10T14:18:06.589Z,99.99
2017-07-10T14:19:16.885Z,99.99
2017-07-10T14:20:27.431Z,99.99
2017-07-10T14:21:37.395Z,99.99
2017-07-10T14:22:47.030Z,99.99
2017-07-10T14:23:57.285Z,99.99
2017-07-10T14:25:07.555Z,99.99
2017-07-10T14:26:17.788Z,99.99
2017-07-10T14:27:28.090Z,99.99
2017-07-10T14:28:38.347Z,99.99
2017-07-10T14:29:47.998Z,99.99
2017-07-10T14:30:57.630Z,99.99
2017-07-10T14:32:07.820Z,99.99
2017-07-10T14:33:18.098Z,99.99
2017-07-10T14:34:28.362Z,99.99
2017-07-10T14:35:38.633Z,99.99
2017-07-10T14:36:48.582Z,99.99
2017-07-10T14:37:58.489Z,99.99
2017-07-10T14:39:08.769Z,99.99
2017-07-10T14:40:19.057Z,99.99
2017-07-10T14:41:29.030Z,99.99
2017-07-10T14:42:39.301Z,99.99
2017-07-10T14:43:49.870Z,99.99
2017-07-10T14:44:59.845Z,99.93
2017-07-10T14:46:10.113Z,99.35
2017-07-10T14:47:20.409Z,98.58
2017-07-10T14:48:30.703Z,99.45
2017-07-10T14:49:40.914Z,98.1
2017-07-10T14:50:51.193Z,97.28
2017-07-10T14:52:01.173Z,98.73
2017-07-10T14:53:11.501Z,98.87
2017-07-10T14:54:21.779Z,99.99
2017-07-10T14:55:32.297Z,99.99
2017-07-10T14:56:42.592Z,99.16
2017-07-10T14:57:52.866Z,99.26
2017-07-10T14:59:03.133Z,99.55
2017-07-10T15:00:13.410Z,99.99
2017-07-10T15:01:23.680Z,99.99
2017-07-10T15:02:33.648Z,98.87
2017-07-10T15:03:43.923Z,98.77
2017-07-10T15:04:54.196Z,98.63
2017-07-10T15:06:04.154Z,99.99
2017-07-10T15:07:14.685Z,99.65
2017-07-10T15:08:24.974Z,98.39
2017-07-10T15:09:35.254Z,95.69
2017-07-10T15:10:45.229Z,98.78
2017-07-10T15:11:55.509Z,98.92
2017-07-10T15:13:06.031Z,96.61
2017-07-10T15:14:15.673Z,94.1
2017-07-10T15:15:25.623Z,92.94
2017-07-10T15:16:35.675Z,94.48
2017-07-10T15:17:45.966Z,92.94
2017-07-10T15:18:56.493Z,95.25
2017-07-10T15:20:06.450Z,96.31
2017-07-10T15:21:15.767Z,94.58
2017-07-10T15:22:26.043Z,95.06
2017-07-10T15:23:36.322Z,94.34
2017-07-10T15:24:46.847Z,95.69